Portada
METAR-TAF:

METAR-TAF

Aeropuertos :

Glasgow Municipal Airport

Glasgow, Kentucky, Estados Unidos

latitud: 37-01-54N, longitud: 085-57-13W, altitud: 218 m

Observación

El informe se hizo hace 38 minutos, a las 18:35 UTC
Viento calma
Temperatura 29°C
Humedad 58%
Presión 1025 hPa
Visibilidad: 16.1 km
Nubes dispersas a una altura de 3900 ft

METAR: KGLW 191835Z AUTO 00000KT 10SM SCT039 29/20 A3027 RMK AO2 T02940204

Hora: 14:13 (19:13 UTC)


TAF: falta

Observaciones y pronósticos meteorológicos de más de 4000 aeropuertos (mensajes METAR y TAF).

Los puntos amarillos y rojos representan las estaciones disponibles.

Ponga el ratón en el punto deseado para ver el nombre de la estación.

Haga clic para ver las observaciones y los pronósticos meteorológicos.

Para cambiar el mapa : haga clic en los botones verdes con una cruz de color negro para hacer un zoom, en el botón verde con un guión para alejar o en las flechas verdes para mapas adyacentes.


METAR-TAF: